createdAt,value
2019-02-27T00:00:43.781Z,5.77
2019-02-27T00:03:11.903Z,6.43
2019-02-27T00:05:41.815Z,5.80
2019-02-27T00:08:10.606Z,5.93
2019-02-27T00:10:39.837Z,6.50
2019-02-27T00:13:08.404Z,6.27
2019-02-27T00:15:38.038Z,6.30
2019-02-27T00:18:07.003Z,6.07
2019-02-27T00:20:37.166Z,6.70
2019-02-27T00:23:05.899Z,5.30
2019-02-27T00:25:36.121Z,6.27
2019-02-27T00:28:04.649Z,5.37
2019-02-27T00:30:33.095Z,5.33
2019-02-27T00:33:01.571Z,5.70
2019-02-27T00:35:30.057Z,5.43
2019-02-27T00:37:58.647Z,5.07
2019-02-27T00:40:27.184Z,5.87
2019-02-27T00:42:55.622Z,5.83
2019-02-27T00:45:24.112Z,5.50
2019-02-27T00:47:53.292Z,5.67
2019-02-27T00:50:22.388Z,5.17
2019-02-27T00:52:51.614Z,5.40
2019-02-27T00:55:20.408Z,4.80
2019-02-27T00:57:48.947Z,5.10
2019-02-27T01:00:18.783Z,4.63
2019-02-27T01:02:47.247Z,5.23
2019-02-27T01:05:15.743Z,4.77
2019-02-27T01:07:44.242Z,4.43
2019-02-27T01:10:13.367Z,4.70
2019-02-27T01:12:41.894Z,4.37
2019-02-27T01:15:13.449Z,6.03
2019-02-27T01:17:42.852Z,5.40
2019-02-27T01:20:15.163Z,5.63
2019-02-27T01:22:44.056Z,5.83
2019-02-27T01:25:13.877Z,5.87
2019-02-27T01:27:42.401Z,4.93
2019-02-27T01:30:13.958Z,5.73
2019-02-27T01:32:42.618Z,6.57
2019-02-27T01:35:17.687Z,6.33
2019-02-27T01:37:42.737Z,5.30
2019-02-27T01:40:17.504Z,5.63
2019-02-27T01:42:49.659Z,5.63
2019-02-27T01:45:21.025Z,5.60
2019-02-27T01:47:48.474Z,6.83
2019-02-27T01:50:28.596Z,5.83
2019-02-27T01:52:57.132Z,6.13
2019-02-27T01:55:25.673Z,5.13
2019-02-27T01:57:54.181Z,6.03
2019-02-27T02:00:23.239Z,5.80
2019-02-27T02:02:52.740Z,4.93
2019-02-27T02:05:21.269Z,5.60
2019-02-27T02:07:49.909Z,4.93
2019-02-27T02:10:18.603Z,5.80
2019-02-27T02:12:50.590Z,5.17
2019-02-27T02:15:27.949Z,5.73
2019-02-27T02:18:25.318Z,4.90
2019-02-27T02:21:11.386Z,5.37
2019-02-27T02:23:47.818Z,5.37
2019-02-27T02:26:28.036Z,6.47
2019-02-27T02:29:32.874Z,5.20
2019-02-27T02:32:17.534Z,6.73
2019-02-27T02:34:58.866Z,6.53
2019-02-27T02:37:56.180Z,6.70
2019-02-27T02:40:36.727Z,6.57
2019-02-27T02:43:40.165Z,6.53
2019-02-27T02:46:20.887Z,6.93
2019-02-27T02:49:22.343Z,7.93
2019-02-27T02:52:04.375Z,6.33
2019-02-27T02:54:42.058Z,6.70
2019-02-27T02:57:22.631Z,6.53
2019-02-27T03:00:09.227Z,6.67
2019-02-27T03:03:04.979Z,8.00
2019-02-27T03:05:39.395Z,8.33
2019-02-27T03:08:19.916Z,6.63
2019-02-27T03:11:01.964Z,8.10
2019-02-27T03:13:41.559Z,7.47
2019-02-27T03:16:34.916Z,7.73
2019-02-27T03:19:15.425Z,8.10
2019-02-27T03:22:12.221Z,7.07
2019-02-27T03:24:46.169Z,8.33
2019-02-27T03:27:34.080Z,9.73
2019-02-27T03:30:20.195Z,9.63
2019-02-27T03:33:06.837Z,10.20
2019-02-27T03:36:05.323Z,9.07
2019-02-27T03:38:59.220Z,8.97
2019-02-27T03:41:49.220Z,8.30
2019-02-27T03:44:23.303Z,7.53
2019-02-27T03:47:15.647Z,8.30
2019-02-27T03:50:14.651Z,9.40
2019-02-27T03:52:50.762Z,6.57
2019-02-27T03:55:32.879Z,6.47
2019-02-27T03:58:07.139Z,6.97
2019-02-27T04:00:53.800Z,7.77
2019-02-27T04:03:23.668Z,7.73
2019-02-27T04:06:03.345Z,8.27
2019-02-27T04:08:43.555Z,7.00
2019-02-27T04:11:08.259Z,7.67
2019-02-27T04:13:36.720Z,7.00
2019-02-27T04:16:05.243Z,6.80
2019-02-27T04:18:32.866Z,6.60
2019-02-27T04:21:01.460Z,7.40
2019-02-27T04:23:29.977Z,7.23
2019-02-27T04:25:58.429Z,7.77
2019-02-27T04:28:29.632Z,8.00
2019-02-27T04:30:57.089Z,8.80
2019-02-27T04:33:25.618Z,8.47
2019-02-27T04:35:54.153Z,8.37
2019-02-27T04:38:25.080Z,8.17
2019-02-27T04:40:52.792Z,7.50
2019-02-27T04:43:21.279Z,7.23
2019-02-27T04:45:49.826Z,9.03
2019-02-27T04:48:18.291Z,7.87
2019-02-27T04:50:46.775Z,8.30
2019-02-27T04:53:15.236Z,9.33
2019-02-27T04:55:43.754Z,10.90
2019-02-27T04:58:12.232Z,9.77
2019-02-27T05:00:40.743Z,9.33
2019-02-27T05:03:09.226Z,9.00
2019-02-27T05:05:39.136Z,9.33
2019-02-27T05:08:07.938Z,9.07
2019-02-27T05:10:38.178Z,9.57
2019-02-27T05:13:06.604Z,9.50
2019-02-27T05:15:38.867Z,10.17
2019-02-27T05:18:05.225Z,9.13
2019-02-27T05:20:33.675Z,9.07
2019-02-27T05:23:02.160Z,9.33
2019-02-27T05:25:30.621Z,9.37
2019-02-27T05:28:01.075Z,9.47
2019-02-27T05:30:29.274Z,9.60
2019-02-27T05:33:01.651Z,9.00
2019-02-27T05:35:27.896Z,9.67
2019-02-27T05:37:56.355Z,9.53
2019-02-27T05:40:25.929Z,9.87
2019-02-27T05:42:55.242Z,9.53
2019-02-27T05:45:23.705Z,11.33
2019-02-27T05:47:52.241Z,13.60
2019-02-27T05:50:20.713Z,15.70
2019-02-27T05:52:49.698Z,13.30
2019-02-27T05:55:18.490Z,13.77
2019-02-27T05:57:47.081Z,13.27
2019-02-27T06:00:20.894Z,14.20
2019-02-27T06:02:49.471Z,13.27
2019-02-27T06:05:17.933Z,12.43
2019-02-27T06:07:46.391Z,11.37
2019-02-27T06:10:19.767Z,12.03
2019-02-27T06:12:46.365Z,11.97
2019-02-27T06:15:18.881Z,12.83
2019-02-27T06:17:49.096Z,11.90
2019-02-27T06:20:17.595Z,12.83
2019-02-27T06:22:46.152Z,14.23
2019-02-27T06:25:21.806Z,14.67
2019-02-27T06:27:47.051Z,13.63
2019-02-27T06:30:20.671Z,16.10
2019-02-27T06:32:49.141Z,13.53
2019-02-27T06:35:17.694Z,14.03
2019-02-27T06:37:50.430Z,14.03
2019-02-27T06:40:19.328Z,13.27
2019-02-27T06:42:47.927Z,12.57
2019-02-27T06:45:18.285Z,11.60
2019-02-27T06:47:46.775Z,13.10
2019-02-27T06:50:16.568Z,12.87
2019-02-27T06:52:45.302Z,12.90
2019-02-27T06:55:15.210Z,12.43
2019-02-27T06:57:43.807Z,13.07
2019-02-27T07:00:22.698Z,12.40
2019-02-27T07:02:55.154Z,13.50
2019-02-27T07:05:21.390Z,12.93
2019-02-27T07:07:49.940Z,14.00
2019-02-27T07:10:19.942Z,13.17
2019-02-27T07:12:49.081Z,13.40
2019-02-27T07:15:26.537Z,14.43
2019-02-27T07:17:55.043Z,12.60
2019-02-27T07:20:24.433Z,14.00
2019-02-27T07:22:53.886Z,12.50
2019-02-27T07:25:22.358Z,13.90
2019-02-27T07:27:50.891Z,13.67
2019-02-27T07:30:20.913Z,13.90
2019-02-27T07:32:49.376Z,13.67
2019-02-27T07:35:18.097Z,14.37
2019-02-27T07:37:47.967Z,13.50
2019-02-27T07:40:20.882Z,15.90
2019-02-27T07:42:49.342Z,15.40
2019-02-27T07:45:22.802Z,15.33
2019-02-27T07:47:52.010Z,14.67
2019-02-27T07:50:21.717Z,15.03
2019-02-27T07:52:51.979Z,15.00
2019-02-27T07:55:22.986Z,15.57
2019-02-27T07:57:50.646Z,14.03
2019-02-27T08:00:23.241Z,14.40
2019-02-27T08:02:52.858Z,15.60
2019-02-27T08:05:21.434Z,12.53
2019-02-27T08:07:50.046Z,12.23
2019-02-27T08:10:23.237Z,13.53
2019-02-27T08:12:55.628Z,12.93
2019-02-27T08:15:21.886Z,11.70
2019-02-27T08:17:50.451Z,13.73
2019-02-27T08:20:21.067Z,14.60
2019-02-27T08:22:49.622Z,13.70
2019-02-27T08:25:19.119Z,13.43
2019-02-27T08:27:47.783Z,13.13
2019-02-27T08:30:24.713Z,12.07
2019-02-27T08:32:53.191Z,13.13
2019-02-27T08:35:21.640Z,14.53
2019-02-27T08:37:50.179Z,12.20
2019-02-27T08:40:18.647Z,12.60
2019-02-27T08:42:47.179Z,12.67
2019-02-27T08:45:20.177Z,12.10
2019-02-27T08:47:47.774Z,13.57
2019-02-27T08:50:18.848Z,13.53
2019-02-27T08:52:50.063Z,12.13
2019-02-27T08:55:23.519Z,12.70
2019-02-27T08:57:55.990Z,13.00
2019-02-27T09:00:30.100Z,12.77
2019-02-27T09:03:02.358Z,12.93
2019-02-27T09:05:29.083Z,13.57
2019-02-27T09:07:57.538Z,12.23
2019-02-27T09:10:30.409Z,13.53
2019-02-27T09:13:05.012Z,11.07
2019-02-27T09:15:27.142Z,11.20
2019-02-27T09:17:55.615Z,10.47
2019-02-27T09:20:24.071Z,11.43
2019-02-27T09:22:52.640Z,11.03
2019-02-27T09:25:23.699Z,8.87
2019-02-27T09:27:51.385Z,9.73
2019-02-27T09:30:28.813Z,8.67
2019-02-27T09:32:55.232Z,13.13
2019-02-27T09:35:23.898Z,8.80
2019-02-27T09:37:52.612Z,9.97
2019-02-27T09:40:23.519Z,12.60
2019-02-27T09:43:01.719Z,11.37
2019-02-27T09:45:34.679Z,8.97
2019-02-27T09:48:03.447Z,7.57
2019-02-27T09:50:40.679Z,8.47
2019-02-27T09:53:09.199Z,8.80
2019-02-27T09:55:37.975Z,7.67
2019-02-27T09:58:11.198Z,6.23
2019-02-27T10:00:50.582Z,5.73
2019-02-27T10:03:21.130Z,6.37
2019-02-27T10:05:49.273Z,5.23
2019-02-27T10:08:17.759Z,5.47
2019-02-27T10:10:46.219Z,6.07
2019-02-27T10:13:14.747Z,5.07
2019-02-27T10:15:43.589Z,5.20
2019-02-27T10:18:12.371Z,5.70
2019-02-27T10:20:40.954Z,5.73
2019-02-27T10:23:09.421Z,4.63
2019-02-27T10:25:37.978Z,5.00
2019-02-27T10:28:06.545Z,5.70
2019-02-27T10:30:35.139Z,6.30
2019-02-27T10:33:03.737Z,5.33
2019-02-27T10:35:34.752Z,5.70
2019-02-27T10:38:03.142Z,6.07
2019-02-27T10:40:31.608Z,5.63
2019-02-27T10:43:00.105Z,6.20
2019-02-27T10:45:28.766Z,5.67
2019-02-27T10:47:57.245Z,6.03
2019-02-27T10:50:25.759Z,4.93
2019-02-27T10:52:54.297Z,5.13
2019-02-27T10:55:26.925Z,5.00
2019-02-27T10:57:55.635Z,3.73
2019-02-27T11:00:30.204Z,4.10
2019-02-27T11:03:19.943Z,3.97
2019-02-27T11:05:52.335Z,4.70
2019-02-27T11:08:18.720Z,3.77
2019-02-27T11:10:47.254Z,4.60
2019-02-27T11:13:15.790Z,4.07
2019-02-27T11:15:45.418Z,3.20
2019-02-27T11:18:14.264Z,3.63
2019-02-27T11:20:42.861Z,3.90
2019-02-27T11:23:11.385Z,3.13
2019-02-27T11:25:39.847Z,3.20
2019-02-27T11:28:08.379Z,3.60
2019-02-27T11:30:41.848Z,3.00
2019-02-27T11:33:10.648Z,2.40
2019-02-27T11:35:39.094Z,2.10
2019-02-27T11:38:07.577Z,2.33
2019-02-27T11:40:36.030Z,3.83
2019-02-27T11:43:06.920Z,2.70
2019-02-27T11:45:34.950Z,2.80
2019-02-27T11:48:03.594Z,2.20
2019-02-27T11:50:32.316Z,1.93
2019-02-27T11:53:02.862Z,2.43
2019-02-27T11:55:30.947Z,2.60
2019-02-27T11:58:04.225Z,2.10
2019-02-27T12:00:31.215Z,2.13
2019-02-27T12:03:00.152Z,2.37
2019-02-27T12:05:33.707Z,2.20
2019-02-27T12:07:59.361Z,2.10
2019-02-27T12:10:31.931Z,2.30
2019-02-27T12:13:01.395Z,1.67
2019-02-27T12:15:30.632Z,3.30
2019-02-27T12:18:00.616Z,2.13
2019-02-27T12:20:29.840Z,1.87
2019-02-27T12:22:58.312Z,1.93
2019-02-27T12:25:29.728Z,2.57
2019-02-27T12:27:57.699Z,1.70
2019-02-27T12:30:28.470Z,2.10
2019-02-27T12:32:57.227Z,1.97
2019-02-27T12:35:27.998Z,2.20
2019-02-27T12:37:56.521Z,2.00
2019-02-27T12:40:25.462Z,1.83
2019-02-27T12:42:54.423Z,1.80
2019-02-27T12:45:29.707Z,1.90
2019-02-27T12:47:58.618Z,2.03
2019-02-27T12:50:31.553Z,2.37
2019-02-27T12:53:00.316Z,2.63
2019-02-27T12:55:28.849Z,2.87
2019-02-27T12:57:57.387Z,3.10
2019-02-27T13:00:34.756Z,2.33
2019-02-27T13:03:08.377Z,4.20
2019-02-27T13:05:34.709Z,2.90
2019-02-27T13:08:03.233Z,2.93
2019-02-27T13:10:34.150Z,2.83
2019-02-27T13:13:02.048Z,4.50
2019-02-27T13:15:31.565Z,3.47
2019-02-27T13:18:00.019Z,2.90
2019-02-27T13:20:29.918Z,2.93
2019-02-27T13:23:04.147Z,3.23
2019-02-27T13:25:30.279Z,2.43
2019-02-27T13:27:59.004Z,2.83
2019-02-27T13:30:28.312Z,4.20
2019-02-27T13:33:00.778Z,3.60
2019-02-27T13:35:28.705Z,4.67
2019-02-27T13:37:57.495Z,3.63
2019-02-27T13:40:28.362Z,4.20
2019-02-27T13:42:56.878Z,3.50
2019-02-27T13:45:47.328Z,3.93
2019-02-27T13:48:14.877Z,3.07
2019-02-27T13:50:43.438Z,3.50
2019-02-27T13:53:12.004Z,4.13
2019-02-27T13:55:40.463Z,4.80
2019-02-27T13:58:08.941Z,4.60
2019-02-27T14:00:38.171Z,4.00
2019-02-27T14:03:06.617Z,3.93
2019-02-27T14:05:36.222Z,4.70
2019-02-27T14:08:06.172Z,4.53
2019-02-27T14:10:35.376Z,5.53
2019-02-27T14:13:08.765Z,5.10
2019-02-27T14:15:34.503Z,5.33
2019-02-27T14:18:03.063Z,6.30
2019-02-27T14:20:31.638Z,5.60
2019-02-27T14:23:00.177Z,5.27
2019-02-27T14:25:33.091Z,6.47
2019-02-27T14:28:00.724Z,5.43
2019-02-27T14:30:41.295Z,6.53
2019-02-27T14:33:10.979Z,7.57
2019-02-27T14:35:39.675Z,8.63
2019-02-27T14:38:08.142Z,7.83
2019-02-27T14:40:39.483Z,9.43
2019-02-27T14:43:06.962Z,10.43
2019-02-27T14:45:39.566Z,11.53
2019-02-27T14:48:05.764Z,8.53
2019-02-27T14:50:34.863Z,9.23
2019-02-27T14:53:03.535Z,11.03
2019-02-27T14:55:36.061Z,9.00
2019-02-27T14:58:02.574Z,8.20
2019-02-27T15:00:33.731Z,7.87
2019-02-27T15:03:21.595Z,8.60
2019-02-27T15:05:50.649Z,9.50
2019-02-27T15:08:19.116Z,8.23
2019-02-27T15:10:47.644Z,9.53
2019-02-27T15:13:16.183Z,8.17
2019-02-27T15:15:44.654Z,8.53
2019-02-27T15:18:14.060Z,8.07
2019-02-27T15:20:42.723Z,10.07
2019-02-27T15:23:14.146Z,8.27
2019-02-27T15:25:43.430Z,7.70
2019-02-27T15:28:12.200Z,8.70
2019-02-27T15:30:40.810Z,8.67
2019-02-27T15:33:09.415Z,7.57
2019-02-27T15:35:37.946Z,7.10
2019-02-27T15:38:11.383Z,8.37
2019-02-27T15:40:38.398Z,6.83
2019-02-27T15:43:11.191Z,8.17
2019-02-27T15:45:37.343Z,9.07
2019-02-27T15:48:06.948Z,9.27
2019-02-27T15:50:36.559Z,8.37
2019-02-27T15:53:05.219Z,7.60
2019-02-27T15:55:35.275Z,7.63
2019-02-27T15:58:04.231Z,7.87
2019-02-27T16:00:32.848Z,7.97
2019-02-27T16:03:01.331Z,9.57
2019-02-27T16:05:31.533Z,10.33
2019-02-27T16:08:00.427Z,11.67
2019-02-27T16:10:29.414Z,10.63
2019-02-27T16:13:01.064Z,10.13
2019-02-27T16:15:28.283Z,9.93
2019-02-27T16:17:56.744Z,10.13
2019-02-27T16:20:27.521Z,9.67
2019-02-27T16:22:56.317Z,9.80
2019-02-27T16:25:28.947Z,9.67
2019-02-27T16:27:57.491Z,10.63
2019-02-27T16:30:32.429Z,10.23
2019-02-27T16:32:59.328Z,11.10
2019-02-27T16:35:27.999Z,10.60
2019-02-27T16:37:57.725Z,10.07
2019-02-27T16:40:28.748Z,11.63
2019-02-27T16:42:57.275Z,10.20
2019-02-27T16:45:36.770Z,11.07
2019-02-27T16:48:04.611Z,10.67
2019-02-27T16:50:34.049Z,10.30
2019-02-27T16:53:02.611Z,10.07
2019-02-27T16:55:35.604Z,10.07
2019-02-27T16:58:02.017Z,10.03
2019-02-27T17:00:38.464Z,10.67
2019-02-27T17:03:06.927Z,10.17
2019-02-27T17:05:35.461Z,11.47
2019-02-27T17:08:04.009Z,13.63
2019-02-27T17:10:34.106Z,15.63
2019-02-27T17:13:02.571Z,14.50
2019-02-27T17:15:34.645Z,28.43
2019-02-27T17:18:01.422Z,15.67
2019-02-27T17:20:30.968Z,31.33
2019-02-27T17:23:07.575Z,11.90
2019-02-27T17:25:32.359Z,27.80
2019-02-27T17:28:01.399Z,14.47
2019-02-27T17:30:37.730Z,12.13
2019-02-27T17:33:05.400Z,13.07
2019-02-27T17:35:34.950Z,19.40
2019-02-27T17:38:03.521Z,16.10
2019-02-27T17:40:36.594Z,15.63
2019-02-27T17:43:02.228Z,12.53
2019-02-27T17:45:30.767Z,18.37
2019-02-27T17:47:59.322Z,13.47
2019-02-27T17:50:31.050Z,12.93
2019-02-27T17:52:58.023Z,13.00
2019-02-27T17:55:26.486Z,13.00
2019-02-27T17:57:57.952Z,14.03
2019-02-27T18:00:49.956Z,15.00
2019-02-27T18:03:16.312Z,15.30
2019-02-27T18:05:44.780Z,16.87
2019-02-27T18:08:15.913Z,15.40
2019-02-27T18:10:43.668Z,18.27
2019-02-27T18:13:12.131Z,20.47
2019-02-27T18:15:40.595Z,17.43
2019-02-27T18:18:10.666Z,18.23
2019-02-27T18:20:39.518Z,17.83
2019-02-27T18:23:08.078Z,18.07
2019-02-27T18:25:41.172Z,18.73
2019-02-27T18:28:06.739Z,17.20
2019-02-27T18:30:35.439Z,17.30
2019-02-27T18:33:03.973Z,18.00
2019-02-27T18:35:32.532Z,17.63
2019-02-27T18:38:00.995Z,17.50
2019-02-27T18:40:29.445Z,17.97
2019-02-27T18:42:58.109Z,18.07
2019-02-27T18:45:28.321Z,17.73
2019-02-27T18:47:58.656Z,18.77
2019-02-27T18:50:27.210Z,18.50
2019-02-27T18:52:55.740Z,18.73
2019-02-27T18:55:29.581Z,20.17
2019-02-27T18:57:54.520Z,19.40
2019-02-27T19:00:24.653Z,19.37
2019-02-27T19:02:55.829Z,20.37
2019-02-27T19:05:24.722Z,22.23
2019-02-27T19:07:54.821Z,19.73
2019-02-27T19:10:23.855Z,21.83
2019-02-27T19:12:52.390Z,20.87
2019-02-27T19:15:23.774Z,22.43
2019-02-27T19:17:52.621Z,21.60
2019-02-27T19:20:26.760Z,21.67
2019-02-27T19:22:55.449Z,24.80
2019-02-27T19:25:23.912Z,20.93
2019-02-27T19:27:52.445Z,23.17
2019-02-27T19:30:21.174Z,22.67
2019-02-27T19:32:49.706Z,23.00
2019-02-27T19:35:20.997Z,24.67
2019-02-27T19:37:48.573Z,24.17
2019-02-27T19:40:18.947Z,24.87
2019-02-27T19:42:52.282Z,23.20
2019-02-27T19:45:21.486Z,24.07
2019-02-27T19:50:45.231Z,24.43
2019-02-27T19:53:12.332Z,26.80
2019-02-27T19:55:40.855Z,26.83
2019-02-27T19:58:09.331Z,24.43
2019-02-27T20:00:39.063Z,25.37
2019-02-27T20:03:08.187Z,26.90
2019-02-27T20:05:36.639Z,27.33
2019-02-27T20:08:09.812Z,27.67
2019-02-27T20:10:35.620Z,26.10
2019-02-27T20:13:04.519Z,29.00
2019-02-27T20:15:33.067Z,28.47
2019-02-27T20:18:01.729Z,29.30
2019-02-27T20:20:30.314Z,27.90
2019-02-27T20:22:58.904Z,28.13
2019-02-27T20:25:29.732Z,27.30
2019-02-27T20:27:58.860Z,26.73
2019-02-27T20:30:27.635Z,29.97
2019-02-27T20:32:56.267Z,28.37
2019-02-27T20:35:24.793Z,28.87
2019-02-27T20:37:53.460Z,28.00
2019-02-27T20:40:22.456Z,28.43
2019-02-27T20:42:54.889Z,28.40
2019-02-27T20:45:26.384Z,28.73
2019-02-27T20:47:57.638Z,25.87
2019-02-27T20:50:42.078Z,26.33
2019-02-27T20:53:12.383Z,28.20
2019-02-27T20:55:40.949Z,29.90
2019-02-27T20:58:09.483Z,28.70
2019-02-27T21:00:38.019Z,28.80
2019-02-27T21:03:06.696Z,27.80
2019-02-27T21:05:35.484Z,29.17
2019-02-27T21:08:03.948Z,28.00
2019-02-27T21:10:33.426Z,27.83
2019-02-27T21:13:02.061Z,26.63
2019-02-27T21:15:32.601Z,24.77
2019-02-27T21:18:00.780Z,25.77
2019-02-27T21:20:29.280Z,27.93
2019-02-27T21:22:59.802Z,27.73
2019-02-27T21:25:28.392Z,28.00
2019-02-27T21:27:56.860Z,26.37
2019-02-27T21:30:26.159Z,27.20
2019-02-27T21:32:54.859Z,28.03
2019-02-27T21:35:28.614Z,28.53
2019-02-27T21:37:53.785Z,26.17
2019-02-27T21:40:22.320Z,28.07
2019-02-27T21:42:51.893Z,27.83
2019-02-27T21:45:22.117Z,27.03
2019-02-27T21:47:52.017Z,27.70
2019-02-27T21:50:23.330Z,28.37
2019-02-27T21:52:54.477Z,26.77
2019-02-27T21:55:22.187Z,26.87
2019-02-27T21:57:50.672Z,28.17
2019-02-27T22:00:26.205Z,28.67
2019-02-27T22:02:56.614Z,30.83
2019-02-27T22:05:45.113Z,28.53
2019-02-27T22:08:13.611Z,27.03
2019-02-27T22:10:42.311Z,28.93
2019-02-27T22:13:10.930Z,28.13
2019-02-27T22:15:39.641Z,31.73
2019-02-27T22:18:08.265Z,29.20
2019-02-27T22:20:38.464Z,28.90
2019-02-27T22:23:07.005Z,29.13
2019-02-27T22:25:35.465Z,28.13
2019-02-27T22:28:03.920Z,29.73
2019-02-27T22:30:32.681Z,26.63
2019-02-27T22:33:01.313Z,28.57
2019-02-27T22:35:30.511Z,28.23
2019-02-27T22:37:59.283Z,28.13
2019-02-27T22:40:27.795Z,30.10
2019-02-27T22:42:56.300Z,28.30
2019-02-27T22:45:24.872Z,28.87
2019-02-27T22:47:54.614Z,26.53
2019-02-27T22:50:23.353Z,28.20
2019-02-27T22:52:54.784Z,27.20
2019-02-27T22:55:22.138Z,28.57
2019-02-27T22:57:50.642Z,27.60
2019-02-27T23:00:48.915Z,28.87
2019-02-27T23:03:17.458Z,28.23
2019-02-27T23:05:45.915Z,26.97
2019-02-27T23:08:14.485Z,27.40
2019-02-27T23:10:43.378Z,28.73
2019-02-27T23:13:12.794Z,27.13
2019-02-27T23:15:41.873Z,27.00
2019-02-27T23:18:10.329Z,28.23
2019-02-27T23:20:39.085Z,27.90
2019-02-27T23:23:07.615Z,29.37
2019-02-27T23:25:36.143Z,26.00
2019-02-27T23:28:04.635Z,29.80
2019-02-27T23:30:33.087Z,30.13
2019-02-27T23:33:02.305Z,27.37
2019-02-27T23:35:31.687Z,27.27
2019-02-27T23:38:02.977Z,27.97
2019-02-27T23:40:30.332Z,28.67
2019-02-27T23:43:02.442Z,29.50
2019-02-27T23:45:29.011Z,27.67
2019-02-27T23:47:59.294Z,31.03
2019-02-27T23:50:27.684Z,30.53
2019-02-27T23:52:56.142Z,29.07
2019-02-27T23:55:24.601Z,27.93
2019-02-27T23:57:57.544Z,28.23
